sensor_id;sensor_type;location;lat;lon;timestamp;pressure;altitude;pressure_sealevel;temperature;humidity
24280;BME280;12395;42.808;23.408;2023-10-31T00:02:24;95101.97;;;10.12;100.00
24280;BME280;12395;42.808;23.408;2023-10-31T00:04:50;95089.31;;;10.07;100.00
24280;BME280;12395;42.808;23.408;2023-10-31T00:07:15;95089.09;;;10.02;100.00
24280;BME280;12395;42.808;23.408;2023-10-31T00:09:41;95075.44;;;9.99;100.00
24280;BME280;12395;42.808;23.408;2023-10-31T00:12:06;95074.00;;;10.03;100.00
24280;BME280;12395;42.808;23.408;2023-10-31T00:14:31;95063.03;;;9.99;100.00
24280;BME280;12395;42.808;23.408;2023-10-31T00:16:58;95068.09;;;10.01;100.00
24280;BME280;12395;42.808;23.408;2023-10-31T00:19:23;95087.91;;;10.05;100.00
24280;BME280;12395;42.808;23.408;2023-10-31T00:21:49;95111.09;;;10.09;100.00
24280;BME280;12395;42.808;23.408;2023-10-31T00:24:14;95078.66;;;9.81;100.00
24280;BME280;12395;42.808;23.408;2023-10-31T00:26:39;95093.56;;;9.95;100.00
24280;BME280;12395;42.808;23.408;2023-10-31T00:29:05;95107.38;;;9.91;100.00
24280;BME280;12395;42.808;23.408;2023-10-31T00:31:30;95076.97;;;9.74;100.00
24280;BME280;12395;42.808;23.408;2023-10-31T00:33:55;95100.19;;;9.72;100.00
24280;BME280;12395;42.808;23.408;2023-10-31T00:36:22;95085.31;;;9.64;100.00
24280;BME280;12395;42.808;23.408;2023-10-31T00:38:47;95062.38;;;9.37;100.00
24280;BME280;12395;42.808;23.408;2023-10-31T00:41:13;95084.59;;;9.43;100.00
24280;BME280;12395;42.808;23.408;2023-10-31T00:43:38;95059.88;;;9.29;100.00
24280;BME280;12395;42.808;23.408;2023-10-31T00:46:04;95069.47;;;9.30;100.00
24280;BME280;12395;42.808;23.408;2023-10-31T00:48:30;95056.84;;;9.25;100.00
24280;BME280;12395;42.808;23.408;2023-10-31T00:51:01;95069.22;;;9.25;100.00
24280;BME280;12395;42.808;23.408;2023-10-31T00:53:27;95044.19;;;9.21;100.00
24280;BME280;12395;42.808;23.408;2023-10-31T00:55:52;95054.22;;;9.32;100.00
24280;BME280;12395;42.808;23.408;2023-10-31T00:58:17;95032.38;;;9.17;100.00
24280;BME280;12395;42.808;23.408;2023-10-31T01:00:43;95054.22;;;9.32;100.00
24280;BME280;12395;42.808;23.408;2023-10-31T01:03:08;95052.94;;;9.21;100.00
24280;BME280;12395;42.808;23.408;2023-10-31T01:05:33;95048.91;;;9.25;100.00
24280;BME280;12395;42.808;23.408;2023-10-31T01:07:59;95035.09;;;9.30;100.00
24280;BME280;12395;42.808;23.408;2023-10-31T01:10:24;95064.22;;;9.43;100.00
24280;BME280;12395;42.808;23.408;2023-10-31T01:12:50;95041.97;;;9.24;100.00
24280;BME280;12395;42.808;23.408;2023-10-31T01:15:15;95026.25;;;9.10;100.00
24280;BME280;12395;42.808;23.408;2023-10-31T01:17:40;95045.06;;;9.28;100.00
24280;BME280;12395;42.808;23.408;2023-10-31T01:20:06;95032.47;;;9.30;100.00
24280;BME280;12395;42.808;23.408;2023-10-31T01:22:32;95039.81;;;9.41;100.00
24280;BME280;12395;42.808;23.408;2023-10-31T01:24:57;95042.66;;;9.40;100.00
24280;BME280;12395;42.808;23.408;2023-10-31T01:27:23;95046.16;;;9.47;100.00
24280;BME280;12395;42.808;23.408;2023-10-31T01:29:48;95036.50;;;9.32;100.00
24280;BME280;12395;42.808;23.408;2023-10-31T01:32:14;95035.47;;;9.27;100.00
24280;BME280;12395;42.808;23.408;2023-10-31T01:34:40;95052.41;;;9.39;100.00
24280;BME280;12395;42.808;23.408;2023-10-31T01:37:05;95043.22;;;9.28;100.00
24280;BME280;12395;42.808;23.408;2023-10-31T01:39:31;95039.66;;;9.08;100.00
24280;BME280;12395;42.808;23.408;2023-10-31T01:41:56;95030.75;;;9.16;100.00
24280;BME280;12395;42.808;23.408;2023-10-31T01:44:21;95031.81;;;9.21;100.00
24280;BME280;12395;42.808;23.408;2023-10-31T01:46:47;95038.91;;;9.21;100.00
24280;BME280;12395;42.808;23.408;2023-10-31T01:49:14;95051.91;;;9.22;100.00
24280;BME280;12395;42.808;23.408;2023-10-31T01:51:42;95029.47;;;9.05;100.00
24280;BME280;12395;42.808;23.408;2023-10-31T01:54:10;95029.41;;;8.99;100.00
24280;BME280;12395;42.808;23.408;2023-10-31T01:56:36;95026.28;;;9.16;100.00
24280;BME280;12395;42.808;23.408;2023-10-31T01:59:04;95025.50;;;9.22;100.00
24280;BME280;12395;42.808;23.408;2023-10-31T02:01:30;95032.88;;;9.33;100.00
24280;BME280;12395;42.808;23.408;2023-10-31T02:03:55;95026.31;;;9.23;100.00
24280;BME280;12395;42.808;23.408;2023-10-31T02:06:21;95021.38;;;9.13;100.00
24280;BME280;12395;42.808;23.408;2023-10-31T02:08:47;95024.63;;;9.15;100.00
24280;BME280;12395;42.808;23.408;2023-10-31T02:11:13;95010.97;;;9.05;100.00
24280;BME280;12395;42.808;23.408;2023-10-31T02:13:38;94998.19;;;9.15;100.00
24280;BME280;12395;42.808;23.408;2023-10-31T02:16:05;95007.19;;;9.21;100.00
24280;BME280;12395;42.808;23.408;2023-10-31T02:18:30;94994.19;;;9.19;100.00
24280;BME280;12395;42.808;23.408;2023-10-31T02:20:56;95010.03;;;9.19;100.00
24280;BME280;12395;42.808;23.408;2023-10-31T02:23:21;95008.56;;;9.10;100.00
24280;BME280;12395;42.808;23.408;2023-10-31T02:25:46;95017.03;;;8.99;100.00
24280;BME280;12395;42.808;23.408;2023-10-31T02:28:12;95019.34;;;8.81;100.00
24280;BME280;12395;42.808;23.408;2023-10-31T02:30:37;95024.00;;;8.79;100.00
24280;BME280;12395;42.808;23.408;2023-10-31T02:33:03;95010.72;;;8.66;100.00
24280;BME280;12395;42.808;23.408;2023-10-31T02:35:28;95028.81;;;8.69;100.00
24280;BME280;12395;42.808;23.408;2023-10-31T02:37:54;95032.44;;;8.62;100.00
24280;BME280;12395;42.808;23.408;2023-10-31T02:40:19;95021.31;;;8.45;100.00
24280;BME280;12395;42.808;23.408;2023-10-31T02:42:44;94994.38;;;8.28;100.00
24280;BME280;12395;42.808;23.408;2023-10-31T02:45:10;95025.81;;;8.44;100.00
24280;BME280;12395;42.808;23.408;2023-10-31T02:47:36;95007.03;;;8.33;100.00
24280;BME280;12395;42.808;23.408;2023-10-31T02:50:02;95035.44;;;8.31;100.00
24280;BME280;12395;42.808;23.408;2023-10-31T02:52:27;95015.19;;;8.17;100.00
24280;BME280;12395;42.808;23.408;2023-10-31T02:54:53;95028.31;;;8.10;100.00
24280;BME280;12395;42.808;23.408;2023-10-31T02:57:18;95018.69;;;8.03;100.00
24280;BME280;12395;42.808;23.408;2023-10-31T02:59:44;95030.69;;;8.05;100.00
24280;BME280;12395;42.808;23.408;2023-10-31T03:02:09;95026.63;;;8.03;100.00
24280;BME280;12395;42.808;23.408;2023-10-31T03:04:36;95027.09;;;8.13;100.00
24280;BME280;12395;42.808;23.408;2023-10-31T03:07:02;95021.81;;;8.13;100.00
24280;BME280;12395;42.808;23.408;2023-10-31T03:09:27;95021.41;;;8.09;100.00
24280;BME280;12395;42.808;23.408;2023-10-31T03:11:53;95037.03;;;8.11;100.00
24280;BME280;12395;42.808;23.408;2023-10-31T03:14:18;95018.19;;;7.93;100.00
24280;BME280;12395;42.808;23.408;2023-10-31T03:16:43;95017.31;;;7.86;100.00
24280;BME280;12395;42.808;23.408;2023-10-31T03:19:09;95033.84;;;7.94;100.00
24280;BME280;12395;42.808;23.408;2023-10-31T03:21:34;95018.41;;;7.91;100.00
24280;BME280;12395;42.808;23.408;2023-10-31T03:24:01;95006.25;;;7.97;100.00
24280;BME280;12395;42.808;23.408;2023-10-31T03:26:26;95028.50;;;8.09;100.00
24280;BME280;12395;42.808;23.408;2023-10-31T03:28:52;95012.16;;;7.99;100.00
24280;BME280;12395;42.808;23.408;2023-10-31T03:31:22;94978.69;;;7.78;100.00
24280;BME280;12395;42.808;23.408;2023-10-31T03:33:47;94983.09;;;7.71;100.00
24280;BME280;12395;42.808;23.408;2023-10-31T03:36:13;94989.19;;;7.71;100.00
24280;BME280;12395;42.808;23.408;2023-10-31T03:38:38;94988.91;;;7.66;100.00
24280;BME280;12395;42.808;23.408;2023-10-31T03:41:04;94993.44;;;7.72;100.00
24280;BME280;12395;42.808;23.408;2023-10-31T03:43:29;94988.00;;;7.74;100.00
24280;BME280;12395;42.808;23.408;2023-10-31T03:45:55;94998.09;;;7.92;100.00
24280;BME280;12395;42.808;23.408;2023-10-31T03:48:20;94996.63;;;7.89;100.00
24280;BME280;12395;42.808;23.408;2023-10-31T03:50:46;94986.28;;;7.88;100.00
24280;BME280;12395;42.808;23.408;2023-10-31T03:53:12;94982.72;;;7.74;100.00
24280;BME280;12395;42.808;23.408;2023-10-31T03:55:37;94974.28;;;7.64;100.00
24280;BME280;12395;42.808;23.408;2023-10-31T03:58:03;94995.44;;;7.70;100.00
24280;BME280;12395;42.808;23.408;2023-10-31T04:00:28;95002.59;;;7.76;100.00
24280;BME280;12395;42.808;23.408;2023-10-31T04:02:55;94999.91;;;7.70;100.00
24280;BME280;12395;42.808;23.408;2023-10-31T04:05:20;94986.84;;;7.62;100.00
24280;BME280;12395;42.808;23.408;2023-10-31T04:07:46;94992.56;;;7.65;100.00
24280;BME280;12395;42.808;23.408;2023-10-31T04:10:12;94992.75;;;7.64;100.00
24280;BME280;12395;42.808;23.408;2023-10-31T04:12:38;94987.03;;;7.60;100.00
24280;BME280;12395;42.808;23.408;2023-10-31T04:15:04;94987.47;;;7.64;100.00
24280;BME280;12395;42.808;23.408;2023-10-31T04:17:30;94993.28;;;7.59;100.00
24280;BME280;12395;42.808;23.408;2023-10-31T04:19:55;94987.53;;;7.49;100.00
24280;BME280;12395;42.808;23.408;2023-10-31T04:22:21;94985.72;;;7.50;100.00
24280;BME280;12395;42.808;23.408;2023-10-31T04:24:46;94992.03;;;7.55;100.00
24280;BME280;12395;42.808;23.408;2023-10-31T04:27:12;94967.09;;;7.37;100.00
24280;BME280;12395;42.808;23.408;2023-10-31T04:29:37;94979.97;;;7.46;100.00
24280;BME280;12395;42.808;23.408;2023-10-31T04:32:03;94961.47;;;7.40;100.00
24280;BME280;12395;42.808;23.408;2023-10-31T04:34:29;94976.06;;;7.42;100.00
24280;BME280;12395;42.808;23.408;2023-10-31T04:36:54;94961.97;;;7.29;100.00
24280;BME280;12395;42.808;23.408;2023-10-31T04:39:19;94971.66;;;7.28;100.00
24280;BME280;12395;42.808;23.408;2023-10-31T04:41:45;94986.63;;;7.42;100.00
24280;BME280;12395;42.808;23.408;2023-10-31T04:44:10;94969.94;;;7.35;100.00
24280;BME280;12395;42.808;23.408;2023-10-31T04:46:36;94985.63;;;7.43;100.00
24280;BME280;12395;42.808;23.408;2023-10-31T04:49:01;94990.19;;;7.35;100.00
24280;BME280;12395;42.808;23.408;2023-10-31T04:51:27;94977.13;;;7.27;100.00
24280;BME280;12395;42.808;23.408;2023-10-31T04:53:52;94983.13;;;7.35;100.00
24280;BME280;12395;42.808;23.408;2023-10-31T04:56:18;94989.97;;;7.15;100.00
24280;BME280;12395;42.808;23.408;2023-10-31T04:58:44;94995.84;;;7.17;100.00
24280;BME280;12395;42.808;23.408;2023-10-31T05:01:13;94997.75;;;7.23;100.00
24280;BME280;12395;42.808;23.408;2023-10-31T05:03:39;95003.03;;;7.23;100.00
24280;BME280;12395;42.808;23.408;2023-10-31T05:06:05;95021.38;;;7.31;100.00
24280;BME280;12395;42.808;23.408;2023-10-31T05:08:31;95021.75;;;7.28;100.00
24280;BME280;12395;42.808;23.408;2023-10-31T05:10:58;94970.44;;;6.95;100.00
24280;BME280;12395;42.808;23.408;2023-10-31T05:13:23;95007.53;;;7.29;100.00
24280;BME280;12395;42.808;23.408;2023-10-31T05:15:48;94989.06;;;7.23;100.00
24280;BME280;12395;42.808;23.408;2023-10-31T05:18:14;94995.94;;;7.24;100.00
24280;BME280;12395;42.808;23.408;2023-10-31T05:20:40;94981.31;;;7.21;100.00
24280;BME280;12395;42.808;23.408;2023-10-31T05:23:06;94974.91;;;7.09;100.00
24280;BME280;12395;42.808;23.408;2023-10-31T05:25:31;94993.94;;;7.26;100.00
24280;BME280;12395;42.808;23.408;2023-10-31T05:27:56;94996.97;;;7.23;100.00
24280;BME280;12395;42.808;23.408;2023-10-31T05:30:22;94989.91;;;7.30;100.00
24280;BME280;12395;42.808;23.408;2023-10-31T05:32:49;95015.69;;;7.49;100.00
24280;BME280;12395;42.808;23.408;2023-10-31T05:35:15;94980.66;;;7.34;100.00
24280;BME280;12395;42.808;23.408;2023-10-31T05:37:40;94998.00;;;7.43;100.00
24280;BME280;12395;42.808;23.408;2023-10-31T05:40:06;95009.03;;;7.53;100.00
24280;BME280;12395;42.808;23.408;2023-10-31T05:42:32;94988.78;;;7.53;100.00
24280;BME280;12395;42.808;23.408;2023-10-31T05:44:57;94997.09;;;7.71;100.00
24280;BME280;12395;42.808;23.408;2023-10-31T05:47:22;94994.25;;;7.73;100.00
24280;BME280;12395;42.808;23.408;2023-10-31T05:49:48;95000.03;;;7.83;100.00
24280;BME280;12395;42.808;23.408;2023-10-31T05:52:13;94998.22;;;7.84;100.00
24280;BME280;12395;42.808;23.408;2023-10-31T05:54:39;94998.09;;;7.92;100.00
24280;BME280;12395;42.808;23.408;2023-10-31T05:57:04;94995.84;;;7.89;100.00
24280;BME280;12395;42.808;23.408;2023-10-31T05:59:30;95026.75;;;8.16;100.00
24280;BME280;12395;42.808;23.408;2023-10-31T06:01:55;95022.91;;;8.18;100.00
24280;BME280;12395;42.808;23.408;2023-10-31T06:04:20;95034.72;;;8.22;100.00
24280;BME280;12395;42.808;23.408;2023-10-31T06:06:46;95035.34;;;8.24;100.00
24280;BME280;12395;42.808;23.408;2023-10-31T06:09:11;95043.09;;;8.26;100.00
24280;BME280;12395;42.808;23.408;2023-10-31T06:11:41;95039.78;;;8.24;100.00
24280;BME280;12395;42.808;23.408;2023-10-31T06:14:07;95033.66;;;8.17;100.00
24280;BME280;12395;42.808;23.408;2023-10-31T06:16:32;95048.38;;;8.26;100.00
24280;BME280;12395;42.808;23.408;2023-10-31T06:18:58;95035.16;;;8.26;100.00
24280;BME280;12395;42.808;23.408;2023-10-31T06:21:23;95056.53;;;8.31;100.00
24280;BME280;12395;42.808;23.408;2023-10-31T06:23:49;95052.09;;;8.31;100.00
24280;BME280;12395;42.808;23.408;2023-10-31T06:26:15;95045.63;;;8.34;100.00
24280;BME280;12395;42.808;23.408;2023-10-31T06:28:40;95046.53;;;8.47;100.00
24280;BME280;12395;42.808;23.408;2023-10-31T06:31:06;95023.13;;;8.38;100.00
24280;BME280;12395;42.808;23.408;2023-10-31T06:33:31;95039.00;;;8.44;100.00
24280;BME280;12395;42.808;23.408;2023-10-31T06:35:57;95056.66;;;8.44;100.00
24280;BME280;12395;42.808;23.408;2023-10-31T06:38:22;95050.88;;;8.55;100.00
24280;BME280;12395;42.808;23.408;2023-10-31T06:40:49;95032.38;;;8.55;100.00
24280;BME280;12395;42.808;23.408;2023-10-31T06:43:15;95045.91;;;8.73;100.00
24280;BME280;12395;42.808;23.408;2023-10-31T06:45:40;95050.41;;;8.79;100.00
24280;BME280;12395;42.808;23.408;2023-10-31T06:48:05;95046.84;;;8.87;100.00
24280;BME280;12395;42.808;23.408;2023-10-31T06:50:34;95039.94;;;8.92;100.00
24280;BME280;12395;42.808;23.408;2023-10-31T06:52:59;95033.34;;;9.09;100.00
24280;BME280;12395;42.808;23.408;2023-10-31T06:55:24;95027.28;;;9.15;100.00
24280;BME280;12395;42.808;23.408;2023-10-31T06:57:50;95015.31;;;9.19;100.00
24280;BME280;12395;42.808;23.408;2023-10-31T07:00:15;95029.63;;;9.38;100.00
24280;BME280;12395;42.808;23.408;2023-10-31T07:02:41;95017.84;;;9.41;100.00
24280;BME280;12395;42.808;23.408;2023-10-31T07:05:07;95031.75;;;9.56;100.00
24280;BME280;12395;42.808;23.408;2023-10-31T07:07:32;95018.72;;;9.61;100.00
24280;BME280;12395;42.808;23.408;2023-10-31T07:09:57;95006.16;;;9.69;100.00
24280;BME280;12395;42.808;23.408;2023-10-31T07:12:23;95015.31;;;9.80;100.00
24280;BME280;12395;42.808;23.408;2023-10-31T07:14:48;95028.22;;;9.96;100.00
24280;BME280;12395;42.808;23.408;2023-10-31T07:17:14;95041.72;;;10.21;100.00
24280;BME280;12395;42.808;23.408;2023-10-31T07:19:39;95021.34;;;10.15;100.00
24280;BME280;12395;42.808;23.408;2023-10-31T07:22:04;95028.69;;;10.19;100.00
24280;BME280;12395;42.808;23.408;2023-10-31T07:24:30;95029.72;;;10.31;100.00
24280;BME280;12395;42.808;23.408;2023-10-31T07:26:55;95031.75;;;10.29;100.00
24280;BME280;12395;42.808;23.408;2023-10-31T07:29:20;95043.78;;;10.32;100.00
24280;BME280;12395;42.808;23.408;2023-10-31T07:31:46;95018.94;;;10.26;100.00
24280;BME280;12395;42.808;23.408;2023-10-31T07:34:12;95024.22;;;10.33;100.00
24280;BME280;12395;42.808;23.408;2023-10-31T07:36:37;95027.88;;;10.38;100.00
24280;BME280;12395;42.808;23.408;2023-10-31T07:39:04;95010.78;;;10.28;100.00
24280;BME280;12395;42.808;23.408;2023-10-31T07:41:30;95041.16;;;10.58;100.00
24280;BME280;12395;42.808;23.408;2023-10-31T07:43:55;95013.63;;;10.59;100.00
24280;BME280;12395;42.808;23.408;2023-10-31T07:46:21;95018.69;;;10.73;100.00
24280;BME280;12395;42.808;23.408;2023-10-31T07:48:46;94998.53;;;10.72;100.00
24280;BME280;12395;42.808;23.408;2023-10-31T07:51:12;95000.56;;;10.83;100.00
24280;BME280;12395;42.808;23.408;2023-10-31T07:53:37;95006.63;;;10.97;100.00
24280;BME280;12395;42.808;23.408;2023-10-31T07:56:03;94993.19;;;11.05;100.00
24280;BME280;12395;42.808;23.408;2023-10-31T07:58:28;94997.44;;;11.13;100.00
24280;BME280;12395;42.808;23.408;2023-10-31T08:00:54;94995.38;;;11.21;100.00
24280;BME280;12395;42.808;23.408;2023-10-31T08:03:19;94990.25;;;11.33;100.00
24280;BME280;12395;42.808;23.408;2023-10-31T08:05:44;94996.50;;;11.45;100.00
24280;BME280;12395;42.808;23.408;2023-10-31T08:08:10;94998.72;;;11.54;100.00
24280;BME280;12395;42.808;23.408;2023-10-31T08:10:35;94995.63;;;11.57;100.00
24280;BME280;12395;42.808;23.408;2023-10-31T08:13:01;95000.69;;;11.65;100.00
24280;BME280;12395;42.808;23.408;2023-10-31T08:15:26;94988.47;;;11.64;100.00
24280;BME280;12395;42.808;23.408;2023-10-31T08:17:51;94995.22;;;11.67;100.00
24280;BME280;12395;42.808;23.408;2023-10-31T08:20:18;95006.38;;;11.82;100.00
24280;BME280;12395;42.808;23.408;2023-10-31T08:22:43;94993.88;;;11.89;100.00
24280;BME280;12395;42.808;23.408;2023-10-31T08:25:09;94988.16;;;11.92;100.00
24280;BME280;12395;42.808;23.408;2023-10-31T08:27:34;94989.88;;;12.11;100.00
24280;BME280;12395;42.808;23.408;2023-10-31T08:30:00;94984.34;;;12.13;100.00
24280;BME280;12395;42.808;23.408;2023-10-31T08:32:25;94975.91;;;12.22;100.00
24280;BME280;12395;42.808;23.408;2023-10-31T08:34:51;94986.59;;;12.40;100.00
24280;BME280;12395;42.808;23.408;2023-10-31T08:37:16;94962.66;;;12.40;100.00
24280;BME280;12395;42.808;23.408;2023-10-31T08:39:42;94961.38;;;12.50;100.00
24280;BME280;12395;42.808;23.408;2023-10-31T08:42:07;94970.06;;;12.63;100.00
24280;BME280;12395;42.808;23.408;2023-10-31T08:44:33;94940.59;;;12.65;99.87
24280;BME280;12395;42.808;23.408;2023-10-31T08:46:59;94936.84;;;12.72;99.26
24280;BME280;12395;42.808;23.408;2023-10-31T08:49:25;94946.25;;;12.93;99.32
24280;BME280;12395;42.808;23.408;2023-10-31T08:51:50;94948.56;;;13.07;98.60
24280;BME280;12395;42.808;23.408;2023-10-31T08:54:15;94949.84;;;13.23;97.53
24280;BME280;12395;42.808;23.408;2023-10-31T08:56:41;94943.78;;;13.34;97.51
24280;BME280;12395;42.808;23.408;2023-10-31T08:59:06;94915.69;;;13.38;96.47
24280;BME280;12395;42.808;23.408;2023-10-31T09:01:32;94933.25;;;13.57;96.45
24280;BME280;12395;42.808;23.408;2023-10-31T09:03:58;94914.97;;;13.61;96.57
24280;BME280;12395;42.808;23.408;2023-10-31T09:06:25;94922.25;;;13.83;95.39
24280;BME280;12395;42.808;23.408;2023-10-31T09:08:50;94920.09;;;14.04;93.83
24280;BME280;12395;42.808;23.408;2023-10-31T09:11:16;94914.22;;;14.25;92.57
24280;BME280;12395;42.808;23.408;2023-10-31T09:13:41;94911.13;;;14.39;91.41
24280;BME280;12395;42.808;23.408;2023-10-31T09:16:07;94911.88;;;14.58;90.80
24280;BME280;12395;42.808;23.408;2023-10-31T09:18:32;94894.69;;;14.65;90.20
24280;BME280;12395;42.808;23.408;2023-10-31T09:20:58;94890.31;;;14.71;89.98
24280;BME280;12395;42.808;23.408;2023-10-31T09:23:23;94885.19;;;14.81;90.91
24280;BME280;12395;42.808;23.408;2023-10-31T09:25:48;94894.66;;;15.00;90.33
24280;BME280;12395;42.808;23.408;2023-10-31T09:28:14;94890.22;;;15.17;89.98
24280;BME280;12395;42.808;23.408;2023-10-31T09:30:39;94869.00;;;15.22;88.83
24280;BME280;12395;42.808;23.408;2023-10-31T09:33:05;94878.56;;;15.47;87.53
24280;BME280;12395;42.808;23.408;2023-10-31T09:35:30;94875.03;;;15.58;87.07
24280;BME280;12395;42.808;23.408;2023-10-31T09:37:55;94867.31;;;15.73;88.15
24280;BME280;12395;42.808;23.408;2023-10-31T09:40:21;94858.28;;;15.90;86.13
24280;BME280;12395;42.808;23.408;2023-10-31T09:42:47;94856.09;;;16.04;85.48
24280;BME280;12395;42.808;23.408;2023-10-31T09:45:13;94844.50;;;16.15;84.70
24280;BME280;12395;42.808;23.408;2023-10-31T09:47:40;94852.88;;;16.35;82.23
24280;BME280;12395;42.808;23.408;2023-10-31T09:50:06;94831.88;;;16.44;82.34
24280;BME280;12395;42.808;23.408;2023-10-31T09:52:33;94842.22;;;16.73;82.92
24280;BME280;12395;42.808;23.408;2023-10-31T09:54:59;94828.13;;;16.78;81.30
24280;BME280;12395;42.808;23.408;2023-10-31T09:57:24;94827.44;;;16.87;80.58
24280;BME280;12395;42.808;23.408;2023-10-31T09:59:51;94819.47;;;16.92;80.34
24280;BME280;12395;42.808;23.408;2023-10-31T10:02:17;94829.19;;;17.20;80.11
24280;BME280;12395;42.808;23.408;2023-10-31T10:04:42;94813.00;;;17.32;77.72
24280;BME280;12395;42.808;23.408;2023-10-31T10:07:07;94798.09;;;17.41;77.92
24280;BME280;12395;42.808;23.408;2023-10-31T10:09:33;94808.09;;;17.72;76.30
24280;BME280;12395;42.808;23.408;2023-10-31T10:11:59;94803.97;;;17.91;76.25
24280;BME280;12395;42.808;23.408;2023-10-31T10:14:26;94783.50;;;18.12;74.16
24280;BME280;12395;42.808;23.408;2023-10-31T10:16:54;94790.06;;;18.26;72.66
24280;BME280;12395;42.808;23.408;2023-10-31T10:19:21;94780.72;;;18.33;71.39
24280;BME280;12395;42.808;23.408;2023-10-31T10:21:58;94777.94;;;18.55;69.21
24280;BME280;12395;42.808;23.408;2023-10-31T10:24:24;94760.00;;;18.66;67.76
24280;BME280;12395;42.808;23.408;2023-10-31T10:26:50;94775.16;;;18.87;64.91
24280;BME280;12395;42.808;23.408;2023-10-31T10:29:16;94751.59;;;18.99;63.98
24280;BME280;12395;42.808;23.408;2023-10-31T10:31:42;94778.78;;;19.22;62.88
24280;BME280;12395;42.808;23.408;2023-10-31T10:34:08;94766.78;;;19.35;61.78
24280;BME280;12395;42.808;23.408;2023-10-31T10:36:34;94754.69;;;19.43;62.31
24280;BME280;12395;42.808;23.408;2023-10-31T10:39:00;94748.31;;;19.59;60.21
24280;BME280;12395;42.808;23.408;2023-10-31T10:41:27;94763.09;;;19.81;57.08
24280;BME280;12395;42.808;23.408;2023-10-31T10:43:57;94748.31;;;19.84;55.32
24280;BME280;12395;42.808;23.408;2023-10-31T10:46:28;94757.75;;;20.02;55.19
24280;BME280;12395;42.808;23.408;2023-10-31T10:48:58;94745.88;;;20.18;56.06
24280;BME280;12395;42.808;23.408;2023-10-31T10:51:29;94738.91;;;20.27;56.31
24280;BME280;12395;42.808;23.408;2023-10-31T10:54:29;94732.94;;;20.45;55.98
24280;BME280;12395;42.808;23.408;2023-10-31T10:57:01;94721.66;;;20.53;55.50
24280;BME280;12395;42.808;23.408;2023-10-31T10:59:48;94728.31;;;20.75;52.25
24280;BME280;12395;42.808;23.408;2023-10-31T11:02:18;94710.75;;;20.88;51.58
24280;BME280;12395;42.808;23.408;2023-10-31T11:04:44;94702.88;;;21.07;50.86
24280;BME280;12395;42.808;23.408;2023-10-31T11:07:10;94689.34;;;21.22;49.57
24280;BME280;12395;42.808;23.408;2023-10-31T11:09:37;94693.28;;;21.34;48.69
24280;BME280;12395;42.808;23.408;2023-10-31T11:12:03;94696.41;;;21.57;48.50
24280;BME280;12395;42.808;23.408;2023-10-31T11:14:29;94675.63;;;21.57;45.13
24280;BME280;12395;42.808;23.408;2023-10-31T11:16:59;94682.50;;;21.73;47.01
24280;BME280;12395;42.808;23.408;2023-10-31T11:19:27;94665.00;;;21.71;41.91
24280;BME280;12395;42.808;23.408;2023-10-31T11:22:01;94662.25;;;21.81;43.10
24280;BME280;12395;42.808;23.408;2023-10-31T11:24:31;94639.09;;;21.75;42.49
24280;BME280;12395;42.808;23.408;2023-10-31T11:27:02;94661.81;;;22.02;41.68
24280;BME280;12395;42.808;23.408;2023-10-31T11:29:27;94636.19;;;22.00;42.17
24280;BME280;12395;42.808;23.408;2023-10-31T11:31:56;94652.28;;;22.10;40.99
24280;BME280;12395;42.808;23.408;2023-10-31T11:34:22;94645.75;;;22.16;41.70
24280;BME280;12395;42.808;23.408;2023-10-31T11:36:48;94651.06;;;22.26;39.67
24280;BME280;12395;42.808;23.408;2023-10-31T11:39:18;94644.78;;;22.31;39.55
24280;BME280;12395;42.808;23.408;2023-10-31T11:41:50;94638.53;;;22.35;38.38
24280;BME280;12395;42.808;23.408;2023-10-31T11:44:16;94631.75;;;22.38;41.35
24280;BME280;12395;42.808;23.408;2023-10-31T11:46:42;94633.72;;;22.32;40.08
24280;BME280;12395;42.808;23.408;2023-10-31T11:49:08;94620.22;;;22.32;40.61
24280;BME280;12395;42.808;23.408;2023-10-31T11:51:33;94624.41;;;22.43;40.78
24280;BME280;12395;42.808;23.408;2023-10-31T11:54:00;94611.13;;;22.47;41.31
24280;BME280;12395;42.808;23.408;2023-10-31T11:56:26;94620.47;;;22.54;40.41
24280;BME280;12395;42.808;23.408;2023-10-31T11:59:00;94613.19;;;22.60;39.80
24280;BME280;12395;42.808;23.408;2023-10-31T12:01:26;94612.31;;;22.64;39.43
24280;BME280;12395;42.808;23.408;2023-10-31T12:03:51;94600.41;;;22.65;40.13
24280;BME280;12395;42.808;23.408;2023-10-31T12:06:17;94605.09;;;22.78;40.86
24280;BME280;12395;42.808;23.408;2023-10-31T12:08:45;94594.44;;;22.68;41.84
24280;BME280;12395;42.808;23.408;2023-10-31T12:11:23;94591.72;;;22.68;42.34
24280;BME280;12395;42.808;23.408;2023-10-31T12:13:57;94597.84;;;22.74;42.72
24280;BME280;12395;42.808;23.408;2023-10-31T12:16:33;94577.63;;;22.71;42.96
24280;BME280;12395;42.808;23.408;2023-10-31T12:19:04;94582.16;;;22.76;43.24
24280;BME280;12395;42.808;23.408;2023-10-31T12:21:48;94572.47;;;22.75;43.61
24280;BME280;12395;42.808;23.408;2023-10-31T12:24:16;94574.00;;;22.81;43.44
24280;BME280;12395;42.808;23.408;2023-10-31T12:26:41;94572.47;;;22.75;43.23
24280;BME280;12395;42.808;23.408;2023-10-31T12:31:33;94568.25;;;22.87;44.56
24280;BME280;12395;42.808;23.408;2023-10-31T12:34:07;94564.22;;;23.03;42.80
24280;BME280;12395;42.808;23.408;2023-10-31T12:36:35;94555.53;;;23.07;41.62
24280;BME280;12395;42.808;23.408;2023-10-31T12:39:01;94548.94;;;23.13;41.97
24280;BME280;12395;42.808;23.408;2023-10-31T12:41:28;94560.72;;;23.22;42.66
24280;BME280;12395;42.808;23.408;2023-10-31T12:43:54;94555.03;;;23.05;42.04
24280;BME280;12395;42.808;23.408;2023-10-31T12:46:24;94542.81;;;22.88;43.11